CheckWX is a tool to help pilots better visualize weather data.  It is not intended as a substitute for an official pre-flight weather briefing.

07:00:52 UTC

KICT TAF
Wichita Dwight D Eisenhower National Airport
Wichita, Kansas, USA
KICT 210520Z 2106/2206 17014KT P6SM OVC015 FM211500 18017G25KT P6SM OVC015 FM212300 19021KT P6SM VCTS OVC050CB

Sep-21@
06:00 UTC

Sep-21 @ 06:00 UTC

Sep-21@
15:00 UTC

Sep-21 @ 15:00 UTC

KICT 210520Z 2106/2206 17014KT P6SM OVC015
Wind
  • 170° at 14 KTS
Cloud Levels
  • Overcast at 1,500' AGL

Sep-21@
15:00 UTC

Sep-21 @ 15:00 UTC

Sep-21@
23:00 UTC

Sep-21 @ 23:00 UTC

FM211500 18017G25KT P6SM OVC015

From

From Standard forecast or significant change

Wind
  • 180° at 17 KTS
  • {Gusting to 25 KTS
Cloud Levels
  • Overcast at 1,500' AGL

Sep-21@
23:00 UTC

Sep-21 @ 23:00 UTC

Sep-22@
06:00 UTC

Sep-22 @ 06:00 UTC

FM212300 19021KT P6SM VCTS OVC050CB

From

From Standard forecast or significant change

Wind
  • 190° at 21 KTS
Conditions
Area Thunderstorm
Cloud Levels
  • Overcast at 5,000' AGL